sensor_id;sensor_type;location;lat;lon;timestamp;pressure;altitude;pressure_sealevel;temperature;humidity
74228;BME280;62587;52.352;5.006;2022-11-18T00:00:13;99357.41;;;21.40;47.31
74228;BME280;62587;52.352;5.006;2022-11-18T00:02:38;99359.22;;;21.39;47.36
74228;BME280;62587;52.352;5.006;2022-11-18T00:05:03;99362.06;;;21.38;47.23
74228;BME280;62587;52.352;5.006;2022-11-18T00:07:29;99364.56;;;21.39;47.47
74228;BME280;62587;52.352;5.006;2022-11-18T00:09:54;99362.75;;;21.40;47.26
74228;BME280;62587;52.352;5.006;2022-11-18T00:12:20;99364.00;;;21.35;47.33
74228;BME280;62587;52.352;5.006;2022-11-18T00:15:03;99371.47;;;21.32;47.40
74228;BME280;62587;52.352;5.006;2022-11-18T00:17:30;99374.13;;;21.32;47.64
74228;BME280;62587;52.352;5.006;2022-11-18T00:19:57;99374.81;;;21.34;47.53
74228;BME280;62587;52.352;5.006;2022-11-18T00:22:22;99384.50;;;21.35;47.47
74228;BME280;62587;52.352;5.006;2022-11-18T00:24:48;99387.97;;;21.35;47.60
74228;BME280;62587;52.352;5.006;2022-11-18T00:27:13;99391.63;;;21.34;47.65
74228;BME280;62587;52.352;5.006;2022-11-18T00:29:38;99393.28;;;21.35;47.45
74228;BME280;62587;52.352;5.006;2022-11-18T00:32:04;99403.13;;;21.35;47.42
74228;BME280;62587;52.352;5.006;2022-11-18T00:34:29;99405.78;;;21.35;47.44
74228;BME280;62587;52.352;5.006;2022-11-18T00:36:54;99409.44;;;21.34;47.35
74228;BME280;62587;52.352;5.006;2022-11-18T00:39:20;99414.59;;;21.35;47.34
74228;BME280;62587;52.352;5.006;2022-11-18T00:41:46;99412.94;;;21.34;47.47
74228;BME280;62587;52.352;5.006;2022-11-18T00:44:30;99420.06;;;21.34;47.40
74228;BME280;62587;52.352;5.006;2022-11-18T00:46:55;99419.91;;;21.35;47.38
74228;BME280;62587;52.352;5.006;2022-11-18T00:49:21;99420.91;;;21.34;47.26
74228;BME280;62587;52.352;5.006;2022-11-18T00:51:47;99417.41;;;21.34;47.34
74228;BME280;62587;52.352;5.006;2022-11-18T00:54:12;99424.44;;;21.35;47.20
74228;BME280;62587;52.352;5.006;2022-11-18T00:56:37;99429.75;;;21.35;47.35
74228;BME280;62587;52.352;5.006;2022-11-18T00:59:02;99426.25;;;21.34;47.11
74228;BME280;62587;52.352;5.006;2022-11-18T01:01:28;99427.09;;;21.35;47.22
74228;BME280;62587;52.352;5.006;2022-11-18T01:03:53;99434.06;;;21.36;47.11
74228;BME280;62587;52.352;5.006;2022-11-18T01:06:19;99436.72;;;21.36;47.20
74228;BME280;62587;52.352;5.006;2022-11-18T01:08:44;99436.72;;;21.36;47.11
74228;BME280;62587;52.352;5.006;2022-11-18T01:11:10;99438.44;;;21.37;47.17
74228;BME280;62587;52.352;5.006;2022-11-18T01:13:54;99440.94;;;21.38;47.04
74228;BME280;62587;52.352;5.006;2022-11-18T01:16:24;99449.06;;;21.37;46.93
74228;BME280;62587;52.352;5.006;2022-11-18T01:18:50;99454.25;;;21.38;46.92
74228;BME280;62587;52.352;5.006;2022-11-18T01:21:15;99449.75;;;21.39;47.09
74228;BME280;62587;52.352;5.006;2022-11-18T01:23:41;99450.59;;;21.40;46.91
74228;BME280;62587;52.352;5.006;2022-11-18T01:26:08;99459.44;;;21.40;46.96
74228;BME280;62587;52.352;5.006;2022-11-18T01:28:34;99461.25;;;21.40;46.91
74228;BME280;62587;52.352;5.006;2022-11-18T01:31:14;99464.75;;;21.40;46.94
74228;BME280;62587;52.352;5.006;2022-11-18T01:33:41;99465.56;;;21.41;46.70
74228;BME280;62587;52.352;5.006;2022-11-18T01:36:36;99462.09;;;21.40;47.04
74228;BME280;62587;52.352;5.006;2022-11-18T01:39:01;99468.25;;;21.41;47.07
74228;BME280;62587;52.352;5.006;2022-11-18T01:41:27;99466.56;;;21.40;46.87
74228;BME280;62587;52.352;5.006;2022-11-18T01:43:59;99470.91;;;21.41;46.93
74228;BME280;62587;52.352;5.006;2022-11-18T01:46:30;99475.53;;;21.38;46.85
74228;BME280;62587;52.352;5.006;2022-11-18T01:49:07;99481.56;;;21.41;47.10
74228;BME280;62587;52.352;5.006;2022-11-18T01:51:38;99480.03;;;21.38;46.95
74228;BME280;62587;52.352;5.006;2022-11-18T01:54:11;99489.69;;;21.39;46.88
74228;BME280;62587;52.352;5.006;2022-11-18T01:56:47;99489.69;;;21.39;46.85
74228;BME280;62587;52.352;5.006;2022-11-18T01:59:18;99493.22;;;21.40;46.91
74228;BME280;62587;52.352;5.006;2022-11-18T02:01:45;99505.66;;;21.39;46.92
74228;BME280;62587;52.352;5.006;2022-11-18T02:04:13;99502.84;;;21.41;46.95
74228;BME280;62587;52.352;5.006;2022-11-18T02:06:39;99510.03;;;21.40;46.74
74228;BME280;62587;52.352;5.006;2022-11-18T02:09:05;99508.34;;;21.39;46.83
74228;BME280;62587;52.352;5.006;2022-11-18T02:11:31;99511.84;;;21.40;46.89
74228;BME280;62587;52.352;5.006;2022-11-18T02:14:17;99514.34;;;21.41;46.74
74228;BME280;62587;52.352;5.006;2022-11-18T02:27:45;99521.50;;;21.41;46.85
74228;BME280;62587;52.352;5.006;2022-11-18T02:30:16;99522.34;;;21.41;46.62
74228;BME280;62587;52.352;5.006;2022-11-18T02:32:48;99533.00;;;21.41;46.95
74228;BME280;62587;52.352;5.006;2022-11-18T02:35:59;99530.47;;;21.40;46.78
74228;BME280;62587;52.352;5.006;2022-11-18T02:38:27;99534.81;;;21.41;46.87
74228;BME280;62587;52.352;5.006;2022-11-18T02:40:58;99530.47;;;21.40;46.86
74228;BME280;62587;52.352;5.006;2022-11-18T02:43:31;99535.81;;;21.40;46.78
74228;BME280;62587;52.352;5.006;2022-11-18T02:46:01;99533.16;;;21.40;46.72
74228;BME280;62587;52.352;5.006;2022-11-18T02:48:31;99546.47;;;21.40;46.75
74228;BME280;62587;52.352;5.006;2022-11-18T02:51:00;99544.78;;;21.38;46.85
74228;BME280;62587;52.352;5.006;2022-11-18T02:53:29;99540.44;;;21.38;46.80
74228;BME280;62587;52.352;5.006;2022-11-18T02:55:57;99543.94;;;21.38;46.79
74228;BME280;62587;52.352;5.006;2022-11-18T02:58:24;99548.28;;;21.39;46.81
74228;BME280;62587;52.352;5.006;2022-11-18T03:00:57;99554.44;;;21.40;46.88
74228;BME280;62587;52.352;5.006;2022-11-18T03:03:24;99550.94;;;21.39;46.88
74228;BME280;62587;52.352;5.006;2022-11-18T03:05:58;99548.44;;;21.38;46.96
74228;BME280;62587;52.352;5.006;2022-11-18T03:08:29;99557.13;;;21.40;46.70
74228;BME280;62587;52.352;5.006;2022-11-18T03:11:17;99556.25;;;21.39;46.86
74228;BME280;62587;52.352;5.006;2022-11-18T03:16:45;99570.44;;;21.40;46.90
74228;BME280;62587;52.352;5.006;2022-11-18T03:19:17;99566.06;;;21.38;46.95
74228;BME280;62587;52.352;5.006;2022-11-18T03:21:53;99570.44;;;21.40;46.86
74228;BME280;62587;52.352;5.006;2022-11-18T03:24:32;99572.25;;;21.39;46.83
74228;BME280;62587;52.352;5.006;2022-11-18T03:27:06;99574.91;;;21.39;46.68
74228;BME280;62587;52.352;5.006;2022-11-18T03:29:38;99575.75;;;21.40;46.69
74228;BME280;62587;52.352;5.006;2022-11-18T03:32:11;99583.88;;;21.38;46.66
74228;BME280;62587;52.352;5.006;2022-11-18T03:34:44;99585.41;;;21.41;46.83
74228;BME280;62587;52.352;5.006;2022-11-18T03:37:13;99589.91;;;21.40;46.76
74228;BME280;62587;52.352;5.006;2022-11-18T03:39:48;99592.69;;;21.38;46.69
74228;BME280;62587;52.352;5.006;2022-11-18T03:42:21;99595.50;;;21.37;46.74
74228;BME280;62587;52.352;5.006;2022-11-18T03:44:56;99599.84;;;21.38;46.87
74228;BME280;62587;52.352;5.006;2022-11-18T03:47:33;99600.84;;;21.37;46.74
74228;BME280;62587;52.352;5.006;2022-11-18T03:50:04;99597.19;;;21.38;46.74
74228;BME280;62587;52.352;5.006;2022-11-18T03:52:32;99600.69;;;21.38;46.77
74228;BME280;62587;52.352;5.006;2022-11-18T03:55:04;99603.34;;;21.38;46.68
74228;BME280;62587;52.352;5.006;2022-11-18T03:58:12;99608.66;;;21.38;46.62
74228;BME280;62587;52.352;5.006;2022-11-18T04:00:44;99610.66;;;21.36;46.65
74228;BME280;62587;52.352;5.006;2022-11-18T04:03:11;99610.50;;;21.38;46.56
74228;BME280;62587;52.352;5.006;2022-11-18T04:05:39;99612.34;;;21.38;46.62
74228;BME280;62587;52.352;5.006;2022-11-18T04:08:10;99610.66;;;21.36;46.66
74228;BME280;62587;52.352;5.006;2022-11-18T04:10:41;99621.28;;;21.36;46.90
74228;BME280;62587;52.352;5.006;2022-11-18T04:13:24;99625.78;;;21.36;46.65
74228;BME280;62587;52.352;5.006;2022-11-18T04:15:52;99618.63;;;21.36;46.70
74228;BME280;62587;52.352;5.006;2022-11-18T04:18:18;99622.13;;;21.37;46.56
74228;BME280;62587;52.352;5.006;2022-11-18T04:20:43;99635.47;;;21.37;46.53
74228;BME280;62587;52.352;5.006;2022-11-18T04:23:09;99640.78;;;21.37;46.38
74228;BME280;62587;52.352;5.006;2022-11-18T04:25:34;99638.13;;;21.37;46.61
74228;BME280;62587;52.352;5.006;2022-11-18T04:28:00;99635.47;;;21.37;46.64
74228;BME280;62587;52.352;5.006;2022-11-18T04:30:26;99643.56;;;21.35;46.48
74228;BME280;62587;52.352;5.006;2022-11-18T04:32:51;99639.94;;;21.36;46.69
74228;BME280;62587;52.352;5.006;2022-11-18T04:35:16;99647.06;;;21.36;46.58
74228;BME280;62587;52.352;5.006;2022-11-18T04:37:42;99645.41;;;21.35;46.58
74228;BME280;62587;52.352;5.006;2022-11-18T04:40:08;99650.59;;;21.36;46.54
74228;BME280;62587;52.352;5.006;2022-11-18T04:42:33;99660.38;;;21.36;46.44
74228;BME280;62587;52.352;5.006;2022-11-18T04:44:59;99663.06;;;21.36;46.52
74228;BME280;62587;52.352;5.006;2022-11-18T04:47:24;99667.53;;;21.35;46.52
74228;BME280;62587;52.352;5.006;2022-11-18T04:49:49;99668.38;;;21.36;46.46
74228;BME280;62587;52.352;5.006;2022-11-18T04:52:15;99672.84;;;21.35;46.41
74228;BME280;62587;52.352;5.006;2022-11-18T04:54:41;99670.06;;;21.37;46.54
74228;BME280;62587;52.352;5.006;2022-11-18T04:57:06;99688.84;;;21.35;46.22
74228;BME280;62587;52.352;5.006;2022-11-18T04:59:32;99682.69;;;21.35;46.22
74228;BME280;62587;52.352;5.006;2022-11-18T05:01:57;99686.59;;;21.31;46.42
74228;BME280;62587;52.352;5.006;2022-11-18T05:04:27;99693.63;;;21.22;46.77
74228;BME280;62587;52.352;5.006;2022-11-18T05:06:54;99696.13;;;21.24;46.67
74228;BME280;62587;52.352;5.006;2022-11-18T05:09:20;99691.66;;;21.24;46.90
74228;BME280;62587;52.352;5.006;2022-11-18T05:11:45;99700.34;;;21.26;46.80
74228;BME280;62587;52.352;5.006;2022-11-18T05:14:30;99703.69;;;21.28;46.65
74228;BME280;62587;52.352;5.006;2022-11-18T05:16:59;99703.69;;;21.28;46.69
74228;BME280;62587;52.352;5.006;2022-11-18T05:19:25;99712.53;;;21.29;46.73
74228;BME280;62587;52.352;5.006;2022-11-18T05:21:51;99703.56;;;21.30;46.37
74228;BME280;62587;52.352;5.006;2022-11-18T05:24:16;99709.59;;;21.32;46.31
74228;BME280;62587;52.352;5.006;2022-11-18T05:26:42;99714.91;;;21.32;46.49
74228;BME280;62587;52.352;5.006;2022-11-18T05:29:07;99717.59;;;21.32;46.35
74228;BME280;62587;52.352;5.006;2022-11-18T05:31:33;99725.56;;;21.32;46.59
74228;BME280;62587;52.352;5.006;2022-11-18T05:33:58;99729.06;;;21.32;46.74
74228;BME280;62587;52.352;5.006;2022-11-18T05:36:24;99729.94;;;21.33;46.40
74228;BME280;62587;52.352;5.006;2022-11-18T05:38:49;99724.59;;;21.33;46.48
74228;BME280;62587;52.352;5.006;2022-11-18T05:41:16;99730.03;;;21.31;46.37
74228;BME280;62587;52.352;5.006;2022-11-18T05:44:01;99736.22;;;21.32;46.33
74228;BME280;62587;52.352;5.006;2022-11-18T05:46:27;99733.72;;;21.30;46.36
74228;BME280;62587;52.352;5.006;2022-11-18T05:48:53;99734.53;;;21.31;46.47
74228;BME280;62587;52.352;5.006;2022-11-18T05:51:19;99738.88;;;21.32;46.29
74228;BME280;62587;52.352;5.006;2022-11-18T05:53:44;99730.03;;;21.31;46.39
74228;BME280;62587;52.352;5.006;2022-11-18T05:58:44;99739.84;;;21.31;46.39
74228;BME280;62587;52.352;5.006;2022-11-18T06:01:09;99750.50;;;21.31;46.31
74228;BME280;62587;52.352;5.006;2022-11-18T06:03:38;99747.84;;;21.31;46.17
74228;BME280;62587;52.352;5.006;2022-11-18T06:06:05;99745.16;;;21.31;46.18
74228;BME280;62587;52.352;5.006;2022-11-18T06:08:59;99752.34;;;21.30;46.31
74228;BME280;62587;52.352;5.006;2022-11-18T06:11:27;99741.97;;;21.27;46.27
74228;BME280;62587;52.352;5.006;2022-11-18T06:14:02;99748.84;;;21.30;46.32
74228;BME280;62587;52.352;5.006;2022-11-18T06:16:31;99754.16;;;21.30;46.23
74228;BME280;62587;52.352;5.006;2022-11-18T06:18:58;99765.78;;;21.29;46.13
74228;BME280;62587;52.352;5.006;2022-11-18T06:21:25;99764.81;;;21.30;46.17
74228;BME280;62587;52.352;5.006;2022-11-18T06:23:51;99767.47;;;21.30;46.32
74228;BME280;62587;52.352;5.006;2022-11-18T06:26:16;99770.13;;;21.30;46.29
74228;BME280;62587;52.352;5.006;2022-11-18T06:28:44;99775.47;;;21.30;46.28
74228;BME280;62587;52.352;5.006;2022-11-18T06:31:10;99782.59;;;21.29;46.27
74228;BME280;62587;52.352;5.006;2022-11-18T06:33:35;99787.94;;;21.29;46.39
74228;BME280;62587;52.352;5.006;2022-11-18T06:36:01;99787.94;;;21.29;46.25
74228;BME280;62587;52.352;5.006;2022-11-18T06:38:27;99785.25;;;21.29;46.07
74228;BME280;62587;52.352;5.006;2022-11-18T06:40:57;99792.41;;;21.29;46.33
74228;BME280;62587;52.352;5.006;2022-11-18T06:43:23;99801.25;;;21.29;46.21
74228;BME280;62587;52.352;5.006;2022-11-18T06:46:03;99801.25;;;21.29;46.25
74228;BME280;62587;52.352;5.006;2022-11-18T06:48:48;99811.75;;;21.31;46.16
74228;BME280;62587;52.352;5.006;2022-11-18T06:51:13;99814.53;;;21.29;46.12
74228;BME280;62587;52.352;5.006;2022-11-18T06:53:39;99816.38;;;21.29;46.00
74228;BME280;62587;52.352;5.006;2022-11-18T06:56:09;99822.53;;;21.29;46.12
74228;BME280;62587;52.352;5.006;2022-11-18T06:58:34;99822.53;;;21.29;46.12
74228;BME280;62587;52.352;5.006;2022-11-18T07:01:17;99831.38;;;21.30;46.10
74228;BME280;62587;52.352;5.006;2022-11-18T07:03:44;99834.03;;;21.30;45.98
74228;BME280;62587;52.352;5.006;2022-11-18T07:06:10;99834.03;;;21.30;46.52
74228;BME280;62587;52.352;5.006;2022-11-18T07:08:37;99834.03;;;21.30;45.92
74228;BME280;62587;52.352;5.006;2022-11-18T07:11:04;99839.34;;;21.30;46.00
74228;BME280;62587;52.352;5.006;2022-11-18T07:13:31;99852.66;;;21.30;46.12
74228;BME280;62587;52.352;5.006;2022-11-18T07:16:05;99848.31;;;21.29;46.19
74228;BME280;62587;52.352;5.006;2022-11-18T07:18:32;99848.31;;;21.29;46.08
74228;BME280;62587;52.352;5.006;2022-11-18T07:21:05;99850.13;;;21.28;46.10
74228;BME280;62587;52.352;5.006;2022-11-18T07:23:32;99855.44;;;21.28;46.10
74228;BME280;62587;52.352;5.006;2022-11-18T07:25:57;99860.94;;;21.27;46.13
74228;BME280;62587;52.352;5.006;2022-11-18T07:28:23;99863.44;;;21.28;45.94
74228;BME280;62587;52.352;5.006;2022-11-18T07:30:49;99875.78;;;21.29;46.12
74228;BME280;62587;52.352;5.006;2022-11-18T07:33:14;99865.28;;;21.28;46.01
74228;BME280;62587;52.352;5.006;2022-11-18T07:35:39;99889.09;;;21.29;46.04
74228;BME280;62587;52.352;5.006;2022-11-18T07:38:05;99888.13;;;21.30;46.07
74228;BME280;62587;52.352;5.006;2022-11-18T07:40:30;99881.13;;;21.29;46.06
74228;BME280;62587;52.352;5.006;2022-11-18T07:42:55;99892.59;;;21.30;46.10
74228;BME280;62587;52.352;5.006;2022-11-18T07:45:21;99899.59;;;21.31;46.11
74228;BME280;62587;52.352;5.006;2022-11-18T07:47:46;99897.78;;;21.31;46.23
74228;BME280;62587;52.352;5.006;2022-11-18T07:50:11;99904.81;;;21.32;46.16
74228;BME280;62587;52.352;5.006;2022-11-18T07:52:36;99904.50;;;21.35;46.07
74228;BME280;62587;52.352;5.006;2022-11-18T07:55:02;99912.38;;;21.37;46.07
74228;BME280;62587;52.352;5.006;2022-11-18T07:57:27;99913.94;;;21.40;46.19
74228;BME280;62587;52.352;5.006;2022-11-18T07:59:53;99920.66;;;21.44;46.16
74228;BME280;62587;52.352;5.006;2022-11-18T08:02:18;99920.50;;;21.45;46.01
74228;BME280;62587;52.352;5.006;2022-11-18T08:04:43;99925.56;;;21.48;46.00
74228;BME280;62587;52.352;5.006;2022-11-18T08:07:09;99924.59;;;21.49;46.07
74228;BME280;62587;52.352;5.006;2022-11-18T08:09:34;99923.34;;;21.53;46.07
74228;BME280;62587;52.352;5.006;2022-11-18T08:12:00;99933.72;;;21.56;45.93
74228;BME280;62587;52.352;5.006;2022-11-18T08:14:26;99933.56;;;21.58;45.83
74228;BME280;62587;52.352;5.006;2022-11-18T08:16:53;99935.97;;;21.61;45.80
74228;BME280;62587;52.352;5.006;2022-11-18T08:19:18;99941.72;;;21.66;45.93
74228;BME280;62587;52.352;5.006;2022-11-18T08:21:44;99938.91;;;21.67;45.76
74228;BME280;62587;52.352;5.006;2022-11-18T08:24:09;99945.66;;;21.71;45.72
74228;BME280;62587;52.352;5.006;2022-11-18T08:26:34;99944.66;;;21.72;45.64
74228;BME280;62587;52.352;5.006;2022-11-18T08:29:00;99940.47;;;21.70;45.92
74228;BME280;62587;52.352;5.006;2022-11-18T08:31:27;99949.59;;;21.77;45.89
74228;BME280;62587;52.352;5.006;2022-11-18T08:33:57;99952.66;;;21.82;45.73
74228;BME280;62587;52.352;5.006;2022-11-18T08:36:25;99952.56;;;21.83;45.74
74228;BME280;62587;52.352;5.006;2022-11-18T08:38:51;99952.28;;;21.86;45.68
74228;BME280;62587;52.352;5.006;2022-11-18T08:41:37;99960.44;;;21.85;45.87
74228;BME280;62587;52.352;5.006;2022-11-18T08:44:03;99959.59;;;21.84;46.01
74228;BME280;62587;52.352;5.006;2022-11-18T08:46:29;99959.31;;;21.87;45.93
74228;BME280;62587;52.352;5.006;2022-11-18T08:48:55;99964.38;;;21.90;45.84
74228;BME280;62587;52.352;5.006;2022-11-18T08:51:21;99973.06;;;21.92;45.97
74228;BME280;62587;52.352;5.006;2022-11-18T08:53:46;99976.44;;;21.94;46.02
74228;BME280;62587;52.352;5.006;2022-11-18T08:56:14;99974.72;;;21.93;46.09
74228;BME280;62587;52.352;5.006;2022-11-18T08:58:41;99975.72;;;21.92;45.97
74228;BME280;62587;52.352;5.006;2022-11-18T09:01:07;99980.38;;;21.90;46.05
74228;BME280;62587;52.352;5.006;2022-11-18T09:03:33;99988.34;;;21.90;46.05
74228;BME280;62587;52.352;5.006;2022-11-18T09:06:13;99976.84;;;21.90;45.96
74228;BME280;62587;52.352;5.006;2022-11-18T09:08:39;99992.00;;;21.89;46.02
74228;BME280;62587;52.352;5.006;2022-11-18T09:11:07;100003.34;;;21.91;46.13
74228;BME280;62587;52.352;5.006;2022-11-18T09:13:33;100004.91;;;21.94;46.05
74228;BME280;62587;52.352;5.006;2022-11-18T09:15:59;100003.06;;;21.94;46.00
74228;BME280;62587;52.352;5.006;2022-11-18T09:18:25;100007.28;;;21.97;46.05
74228;BME280;62587;52.352;5.006;2022-11-18T09:20:55;100014.28;;;21.98;45.98
74228;BME280;62587;52.352;5.006;2022-11-18T09:23:20;100021.16;;;22.00;46.02
74228;BME280;62587;52.352;5.006;2022-11-18T09:25:46;100025.53;;;22.01;45.90
74228;BME280;62587;52.352;5.006;2022-11-18T09:28:11;100022.88;;;22.01;45.92
74228;BME280;62587;52.352;5.006;2022-11-18T09:30:37;100017.53;;;22.01;45.93
74228;BME280;62587;52.352;5.006;2022-11-18T09:33:02;100019.34;;;22.01;45.79
74228;BME280;62587;52.352;5.006;2022-11-18T09:35:27;100025.53;;;22.01;45.87
74228;BME280;62587;52.352;5.006;2022-11-18T09:37:53;100013.16;;;22.00;45.88
74228;BME280;62587;52.352;5.006;2022-11-18T09:40:18;100019.50;;;21.99;46.05
74228;BME280;62587;52.352;5.006;2022-11-18T09:43:10;100025.69;;;22.00;46.07
74228;BME280;62587;52.352;5.006;2022-11-18T09:45:44;100035.34;;;22.01;45.99
74228;BME280;62587;52.352;5.006;2022-11-18T09:48:18;100038.00;;;22.01;46.01
74228;BME280;62587;52.352;5.006;2022-11-18T09:50:44;100041.53;;;22.01;46.04
74228;BME280;62587;52.352;5.006;2022-11-18T09:53:18;100043.50;;;21.99;45.91
74228;BME280;62587;52.352;5.006;2022-11-18T09:55:44;100046.16;;;21.99;46.06
74228;BME280;62587;52.352;5.006;2022-11-18T09:58:21;100052.34;;;22.00;45.97
74228;BME280;62587;52.352;5.006;2022-11-18T10:00:47;100062.00;;;22.01;45.96
74228;BME280;62587;52.352;5.006;2022-11-18T10:03:25;100065.66;;;22.00;45.91
74228;BME280;62587;52.352;5.006;2022-11-18T10:05:58;100070.00;;;22.01;45.99
74228;BME280;62587;52.352;5.006;2022-11-18T10:16:27;100072.94;;;21.98;46.23
74228;BME280;62587;52.352;5.006;2022-11-18T10:19:07;100087.38;;;21.95;46.31
74228;BME280;62587;52.352;5.006;2022-11-18T10:24:41;100084.00;;;21.93;46.29
74228;BME280;62587;52.352;5.006;2022-11-18T10:27:12;100088.38;;;21.94;46.23
74228;BME280;62587;52.352;5.006;2022-11-18T10:29:39;100100.59;;;21.97;46.18
74228;BME280;62587;52.352;5.006;2022-11-18T10:32:07;100095.09;;;21.98;46.13
74228;BME280;62587;52.352;5.006;2022-11-18T10:34:45;100105.47;;;21.92;46.22
74228;BME280;62587;52.352;5.006;2022-11-18T10:37:24;100108.69;;;21.95;46.12
74228;BME280;62587;52.352;5.006;2022-11-18T10:39:55;100104.09;;;21.97;45.85
74228;BME280;62587;52.352;5.006;2022-11-18T10:42:28;100102.25;;;21.98;45.96
74228;BME280;62587;52.352;5.006;2022-11-18T10:44:55;100108.44;;;21.98;45.97
74228;BME280;62587;52.352;5.006;2022-11-18T10:47:24;100104.91;;;21.98;45.76
74228;BME280;62587;52.352;5.006;2022-11-18T10:49:51;100105.06;;;21.96;45.37
74228;BME280;62587;52.352;5.006;2022-11-18T10:52:18;100112.22;;;21.96;46.00
74228;BME280;62587;52.352;5.006;2022-11-18T10:54:43;100106.75;;;21.97;45.72
74228;BME280;62587;52.352;5.006;2022-11-18T10:57:17;100092.69;;;21.95;45.68
74228;BME280;62587;52.352;5.006;2022-11-18T10:59:53;100091.88;;;21.95;45.72
74228;BME280;62587;52.352;5.006;2022-11-18T11:04:48;100104.22;;;21.96;45.89
74228;BME280;62587;52.352;5.006;2022-11-18T11:07:28;100105.06;;;21.96;45.89
74228;BME280;62587;52.352;5.006;2022-11-18T11:12:30;100103.38;;;21.95;45.89
74228;BME280;62587;52.352;5.006;2022-11-18T11:14:59;100114.88;;;21.96;45.58
74228;BME280;62587;52.352;5.006;2022-11-18T11:17:38;100110.53;;;21.95;45.61
74228;BME280;62587;52.352;5.006;2022-11-18T11:22:42;100113.03;;;21.87;45.94
74228;BME280;62587;52.352;5.006;2022-11-18T11:25:15;100113.03;;;21.87;45.76
74228;BME280;62587;52.352;5.006;2022-11-18T11:30:20;100117.09;;;21.91;45.68
74228;BME280;62587;52.352;5.006;2022-11-18T11:41:16;100132.41;;;21.89;45.54
74228;BME280;62587;52.352;5.006;2022-11-18T11:44:08;100135.31;;;21.86;45.48
74228;BME280;62587;52.352;5.006;2022-11-18T12:01:21;100139.34;;;21.80;45.72
74228;BME280;62587;52.352;5.006;2022-11-18T12:04:06;100141.31;;;21.78;45.92
74228;BME280;62587;52.352;5.006;2022-11-18T12:06:34;100148.31;;;21.79;46.01
74228;BME280;62587;52.352;5.006;2022-11-18T12:09:02;100147.34;;;21.80;45.93
74228;BME280;62587;52.352;5.006;2022-11-18T12:19:19;100165.63;;;21.85;46.14
74228;BME280;62587;52.352;5.006;2022-11-18T12:24:31;100165.50;;;21.86;46.02
74228;BME280;62587;52.352;5.006;2022-11-18T12:29:26;100170.81;;;21.86;46.12
74228;BME280;62587;52.352;5.006;2022-11-18T12:31:58;100162.72;;;21.88;46.06
74228;BME280;62587;52.352;5.006;2022-11-18T12:34:42;100164.38;;;21.89;45.89
74228;BME280;62587;52.352;5.006;2022-11-18T12:39:47;100173.06;;;21.91;46.18
74228;BME280;62587;52.352;5.006;2022-11-18T12:50:49;100186.41;;;21.91;45.69
74228;BME280;62587;52.352;5.006;2022-11-18T12:53:52;100185.44;;;21.92;45.71
74228;BME280;62587;52.352;5.006;2022-11-18T12:56:23;100188.09;;;21.92;45.64
74228;BME280;62587;52.352;5.006;2022-11-18T12:58:59;100187.13;;;21.93;45.66
74228;BME280;62587;52.352;5.006;2022-11-18T13:01:27;100185.44;;;21.92;45.67
74228;BME280;62587;52.352;5.006;2022-11-18T13:04:10;100192.59;;;21.91;45.68
74228;BME280;62587;52.352;5.006;2022-11-18T13:06:39;100193.44;;;21.92;45.63
74228;BME280;62587;52.352;5.006;2022-11-18T13:09:14;100190.91;;;21.90;45.63
74228;BME280;62587;52.352;5.006;2022-11-18T13:11:50;100200.72;;;21.90;45.85
74228;BME280;62587;52.352;5.006;2022-11-18T13:14:20;100196.34;;;21.89;45.60
74228;BME280;62587;52.352;5.006;2022-11-18T13:17:31;100202.78;;;21.86;45.53
74228;BME280;62587;52.352;5.006;2022-11-18T13:28:45;100206.47;;;21.85;45.53
74228;BME280;62587;52.352;5.006;2022-11-18T13:31:33;100208.28;;;21.85;45.39
74228;BME280;62587;52.352;5.006;2022-11-18T13:34:01;100207.41;;;21.84;45.49
74228;BME280;62587;52.352;5.006;2022-11-18T13:36:27;100217.16;;;21.74;45.76
74228;BME280;62587;52.352;5.006;2022-11-18T13:38:57;100216.91;;;21.77;45.65
74228;BME280;62587;52.352;5.006;2022-11-18T13:41:23;100218.59;;;21.78;45.66
74228;BME280;62587;52.352;5.006;2022-11-18T13:44:21;100225.03;;;21.76;45.68
74228;BME280;62587;52.352;5.006;2022-11-18T13:46:53;100217.03;;;21.76;45.51
74228;BME280;62587;52.352;5.006;2022-11-18T13:49:23;100222.38;;;21.76;45.61
74228;BME280;62587;52.352;5.006;2022-11-18T13:51:53;100220.91;;;21.72;45.65
74228;BME280;62587;52.352;5.006;2022-11-18T13:54:23;100227.25;;;21.71;45.79
74228;BME280;62587;52.352;5.006;2022-11-18T13:56:50;100229.19;;;21.69;45.81
74228;BME280;62587;52.352;5.006;2022-11-18T13:59:18;100231.28;;;21.65;45.77
74228;BME280;62587;52.352;5.006;2022-11-18T14:01:46;100228.34;;;21.68;45.93
74228;BME280;62587;52.352;5.006;2022-11-18T14:04:20;100221.22;;;21.69;45.69
74228;BME280;62587;52.352;5.006;2022-11-18T14:06:45;100217.44;;;21.71;45.67
74228;BME280;62587;52.352;5.006;2022-11-18T14:09:21;100236.19;;;21.70;45.89
74228;BME280;62587;52.352;5.006;2022-11-18T14:12:01;100230.31;;;21.66;45.91
74228;BME280;62587;52.352;5.006;2022-11-18T14:14:33;100239.13;;;21.67;46.03
74228;BME280;62587;52.352;5.006;2022-11-18T14:19:39;100237.97;;;21.60;46.25
74228;BME280;62587;52.352;5.006;2022-11-18T14:22:12;100235.84;;;21.54;46.26
74228;BME280;62587;52.352;5.006;2022-11-18T14:24:38;100249.00;;;21.55;46.34
74228;BME280;62587;52.352;5.006;2022-11-18T14:27:27;100236.53;;;21.56;46.25
74228;BME280;62587;52.352;5.006;2022-11-18T14:29:52;100240.56;;;21.50;46.45
74228;BME280;62587;52.352;5.006;2022-11-18T14:32:17;100243.81;;;21.54;46.50
74228;BME280;62587;52.352;5.006;2022-11-18T14:34:43;100250.56;;;21.58;46.49
74228;BME280;62587;52.352;5.006;2022-11-18T14:37:10;100256.59;;;21.60;45.98
74228;BME280;62587;52.352;5.006;2022-11-18T14:39:37;100259.16;;;21.61;46.34
74228;BME280;62587;52.352;5.006;2022-11-18T14:42:02;100262.78;;;21.60;46.38
74228;BME280;62587;52.352;5.006;2022-11-18T14:44:29;100259.28;;;21.60;46.42
74228;BME280;62587;52.352;5.006;2022-11-18T14:47:02;100268.00;;;21.62;46.14